Tiempo atmosférico en la estación meteorológica de Guadalajara, Guadalajara (721 m.)



Fecha
DESCASC
Temp. máxima en grados centígrados (hora)
DESCASC
Temp. mínima en grados centígrados (hora)
DESCASC
Temp. media en grados centígrados
DESCASC
Racha de viento máxima en m/sg (hora)
DESCASC
Velocidad máxima media en intervalos de 10 minutos(hora)
DESCASC
Precipitaciones diarias en mm
DESCASC
Precipitaciones de 00:00 a 06:00 en mm
DESCASC
Precipitaciones de 06:00 a 12:00 en mm
DESCASC
Precipitaciones de 12:00 a 18:00 en mm
DESCASC
Precipitaciones de 18:00 a 24:00 en mm
DESCASC

Gráficas

Temp. máximas Temp. mínimas Temp. medias Precipitaciones Rachas de viento máximas Velocidades máximas media en intervalos de 10 minutos

Datos horarios

Fecha y hora oficial Temperatura (ºC) Velocidad del viento (km/h) Dirección del viento Racha (km/h) Dirección de racha Precipitación (mm) Presión (hPa) Tendencia (hPa) Humedad (%)
2020-01-18 23:00:00 7.1 7 Norte 18 Sudoeste 0 935.4 -0.5 94
2020-01-18 22:00:00 7.7 13 Sudoeste 37 Oeste 0.8 935.3 -0.4 93
2020-01-18 21:00:00 8.1 15 Sudoeste 27 Sudoeste 0.2 935.1 -1.2 99
2020-01-18 20:00:00 8.1 9 Sudoeste 16 Sudoeste 0.6 935.9 -1.2 99
2020-01-18 19:00:00 8.1 10 Sudoeste 33 Sudoeste 0.2 935.7 -2.1 98
2020-01-18 18:00:00 8 10 Sudoeste 19 Sudoeste 0 936.3 -3.1 98
2020-01-18 17:00:00 8 8 Sudoeste 19 Sudoeste 0 937.1 -3.5 97
2020-01-18 16:00:00 7.8 9 Sudoeste 14 Sudoeste 0.2 937.8 -4.3 97
2020-01-18 15:00:00 7.6 9 Sudoeste 26 Sudoeste 0 939.4 -3.8 93
2020-01-18 14:00:00 7.9 11 Sudoeste 27 Sudoeste 0 940.6 -3.2 87
2020-01-18 13:00:00 7.8 17 Sudoeste 27 Sudoeste 0 942.1 -1.8 85
2020-01-18 12:00:00 7.8 6 Sudoeste 23 Sudoeste 0 943.2 -1 82
2020-01-18 11:00:00 7.2 8 Sudoeste 18 Sudoeste 0 943.8 -0.7 84
2020-01-18 10:00:00 5.5 4 Sur 10 Sur 0 943.9 -0.3 93
2020-01-18 09:00:00 4.7 3 Oeste 9 Sudoeste 0 944.2 0.2 91
2020-01-18 08:00:00 4.5 4 Noroeste 23 Sur 0 944.5 -0.2 85
2020-01-18 07:00:00 4.8 3 Sudoeste 15 Sudeste 0 944.2 -0.4 87
2020-01-18 06:00:00 4.7 6 Sudeste 10 Sudeste 0 944 -0.4 95
2020-01-18 05:00:00 4.1 4 Norte 6 Norte 0 944.7 -0.3 88
2020-01-18 04:00:00 3.1 2 Nordeste 4 Este 0 944.6 -0.4 89
2020-01-18 03:00:00 2.4 3 Este 10 Este 0 944.4 -1.3 83
2020-01-18 02:00:00 4.2 4 Noroeste 13 Sudoeste 0 945 -0.8 77
2020-01-18 01:00:00 4.6 3 Nordeste 6 Este 0 945 -1.1 86
2020-01-18 00:00:00 4.6 5 Este 8 Este 0 945.7 -0.3 90
2020-01-17 23:00:00 4.7 3 Sur 6 Este 0 945.8 0.1 89
2020-01-17 22:00:00 5.2 3 Este 12 Sur 0 946.1 0.5 88
2020-01-17 21:00:00 5.6 4 Sur 14 Sur 0 946 1 84
2020-01-17 20:00:00 7.1 2 Sudeste 8 Sur 0 945.7 1.1 77
2020-01-17 19:00:00 8.7 4 Noroeste 15 Oeste 0 945.6 1.5 66
2020-01-17 18:00:00 11.4 3 Noroeste 15 Noroeste 0 945 0.7 51
2020-01-17 17:00:00 12.2 8 Noroeste 18 Oeste 0 944.6 0.2 50
2020-01-17 16:00:00 12.7 11 Oeste 30 Sudoeste 0 944.1 -0.9 48
2020-01-17 15:00:00 11.2 10 Oeste 25 Oeste 0 944.3 -1.1 65
2020-01-17 14:00:00 10.5 16 Oeste 28 Oeste 0 944.4 -0.2 71
2020-01-17 13:00:00 9.6 12 Sudoeste 25 Sudoeste 0 945 0.9 78
2020-01-17 12:00:00 8.8 13 Oeste 27 Sudoeste 0 945.4 1.9 83
2020-01-17 11:00:00 7.8 14 Sudoeste 23 Sudoeste 0 944.6 1.7 89
2020-01-17 10:00:00 6.4 9 Sudoeste 15 Sudoeste 0 944.1 1.6 91
2020-01-17 09:00:00 6.2 9 Sudoeste 22 Sudoeste 0 943.5 1.5 91
2020-01-17 08:00:00 5.9 10 Sudoeste 18 Oeste 0 942.9 1.2 88
2020-01-17 07:00:00 6.9 9 Sudoeste 27 Sudoeste 0 942.5 0.7 81
2020-01-17 06:00:00 7.3 11 Sudoeste 19 Sudoeste 0 942 0.4 78
2020-01-17 05:00:00 7.5 8 Sudoeste 20 Sudoeste 0 941.7 0.6 74
2020-01-17 04:00:00 7.5 12 Sudoeste 17 Sudoeste 0 941.8 0 73
2020-01-17 03:00:00 7.7 9 Sudoeste 24 Sudoeste 0 941.6 0.1 69
2020-01-17 02:00:00 8.9 17 Sudoeste 28 Oeste 0 941.1 0.2 62
2020-01-17 01:00:00 9 10 Sudoeste 20 Sudoeste 0 941.8 0.8 61
2020-01-17 00:00:00 9 9 Sudoeste 18 Sudoeste 0 941.5 0.7 56
2020-01-16 23:00:00 8.5 6 Sudoeste 11 Sur 0 940.9 0.4 58
2020-01-16 22:00:00 9.1 6 Sudoeste 12 Sudoeste 0 941 0.9 62
2020-01-16 21:00:00 8.9 8 Sudoeste 14 Oeste 0 940.8 0.8 68
2020-01-16 20:00:00 8.6 4 Sudoeste 11 Sur 0 940.5 0.6 71
2020-01-16 19:00:00 9.2 9 Sur 12 Sur 0 940.1 0.2 68
2020-01-16 18:00:00 11.5 6 Sur 19 Oeste 0 940 -0.5 60
2020-01-16 17:00:00 13.4 11 Sudoeste 24 Sudoeste 0 939.9 -1.5 58
2020-01-16 16:00:00 13.5 13 Sudoeste 27 Oeste 0 939.9 -2.1 61
2020-01-16 15:00:00 12.7 12 Sudoeste 22 Oeste 0 940.5 -1.9 67
2020-01-16 14:00:00 10.9 13 Sudoeste 22 Sudoeste 0 941.4 -1.1 75
2020-01-16 13:00:00 10.5 12 Sudoeste 25 Oeste 0 942 -0.5 76
2020-01-16 12:00:00 10.5 7 Sudoeste 15 Sudoeste 0 942.4 0.2 77
2020-01-16 11:00:00 9 9 Sudoeste 19 Sur 0 942.5 0.7 81
2020-01-16 10:00:00 8.4 5 Sudoeste 14 Sudoeste 0 942.5 0.9 82
2020-01-16 09:00:00 8.1 7 Sudoeste 15 Sur 0 942.2 0.6 84
2020-01-16 08:00:00 8 10 Sur 23 Sur 0 941.8 0.1 84
2020-01-16 07:00:00 7.4 7 Sur 14 Sur 0 941.6 -0.5 89
2020-01-16 06:00:00 6.9 2 Sur 5 Sur 0 941.6 -0.6 89
2020-01-16 05:00:00 7 3 Este 7 Este 0 941.7 -0.4 89
2020-01-16 04:00:00 7.1 3 Norte 6 Nordeste 0 942.1 -0.5 88
2020-01-16 03:00:00 6.9 0 Calma 5 Sudeste 0 942.2 -0.5 89
2020-01-16 02:00:00 6.8 2 Nordeste 7 Este 0 942.1 -0.4 88
2020-01-16 01:00:00 6.7 0 Calma 7 Nordeste 0 942.6 0.2 86
2020-01-16 00:00:00 7.1 3 Norte 5 Norte 0 942.7 0.5 84
2020-01-15 23:00:00 7.4 0 Calma 5 Este 0 942.5 0.6 82
2020-01-15 22:00:00 7.6 2 Norte 6 Norte 0 942.4 0.8 80
2020-01-15 21:00:00 7.9 3 Sur 6 Sur 0 942.2 1.2 80
2020-01-15 20:00:00 7.9 5 Sur 11 Sur 0 941.9 1.3 78
2020-01-15 19:00:00 7.9 5 Sur 10 Sudeste 0 941.6 1.3 78
2020-01-15 18:00:00 8.2 5 Sudoeste 13 Sudoeste 0 941 1.1 76
2020-01-15 17:00:00 8.4 6 Sur 12 Sudoeste 0 940.6 0.3 75
2020-01-15 16:00:00 8.3 9 Sur 18 Sur 0 940.3 -0.3 76
2020-01-15 15:00:00 8.2 9 Sur 18 Sur 0 939.9 -1 73
2020-01-15 14:00:00 7.8 8 Sur 15 Sur 0 940.3 0.1 75
2020-01-15 13:00:00 7.5 9 Sur 18 Sur 0 940.6 1.2 78
2020-01-15 12:00:00 6.8 6 Sur 20 Sur 0 940.9 2.3 80
2020-01-15 11:00:00 5.7 12 Sur 23 Sur 0 940.2 2.1 84
2020-01-15 10:00:00 4.5 11 Sur 21 Sudeste 0 939.4 2.2 88
2020-01-15 09:00:00 3.3 10 Sur 22 Sudeste 0 938.6 1.7 90
2020-01-15 08:00:00 3.3 5 Sur 17 Sudoeste 0 938.1 0.7 89
2020-01-15 07:00:00 4.5 11 Sur 23 Sur 0 937.2 -0.5 89
2020-01-15 06:00:00 4.3 15 Sur 27 Sur 0 936.9 -0.7 85
2020-01-15 05:00:00 4.7 5 Sur 8 Sur 0 937.4 0.1 81
2020-01-15 04:00:00 5 5 Sur 15 Sur 0 937.7 0 80
2020-01-15 03:00:00 5.2 6 Sudoeste 15 Sudoeste 0 937.6 -0.3 77
2020-01-15 02:00:00 4.5 5 Sur 10 Sur 0 937.3 -0.5 83
2020-01-15 01:00:00 4.5 3 Noroeste 9 Sur 0 937.7 0 80
2020-01-15 00:00:00 4.5 2 Noroeste 10 Sur 0 937.9 0.3 80
2020-01-14 23:00:00 4.9 4 Sur 10 Sur 0 937.8 0.3 82
2020-01-14 22:00:00 4.5 0 Calma 5 Nordeste 0 937.7 0.7 82
2020-01-14 21:00:00 4.4 2 Sudeste 6 Sur 0 937.6 1 83
2020-01-14 20:00:00 3.7 2 Sur 6 Sudeste 0 937.5 1 82
2020-01-14 19:00:00 4.6 2 Sur 10 Oeste 0 937 0.4 75
2020-01-14 18:00:00 7.1 6 Sudoeste 14 Sudoeste 0 936.6 -0.2 67
2020-01-14 17:00:00 8.9 8 Oeste 14 Oeste 0 936.5 -0.9 60
2020-01-14 16:00:00 8.8 6 Oeste 21 Sudoeste 0 936.6 -1.5 61
2020-01-14 15:00:00 8.4 11 Oeste 22 Sudoeste 0 936.8 -1.9 61
2020-01-14 14:00:00 7.7 8 Oeste 17 Oeste 0 937.4 -1.2 65
2020-01-14 13:00:00 5.8 3 Noroeste 7 Norte 0 938.1 -0.1 68
2020-01-14 12:00:00 2.5 4 Noroeste 6 Noroeste 0 938.7 0.8 80
2020-01-14 11:00:00 0.9 4 Noroeste 6 Noroeste 0 938.6 0.9 83
2020-01-14 10:00:00 -0.7 3 Norte 6 Nordeste 0 938.2 0.9 90
2020-01-14 09:00:00 -2.8 5 Nordeste 8 Nordeste 0 937.9 0.6 91
2020-01-14 08:00:00 -2.6 3 Este 6 Norte 0 937.7 0.4 92
2020-01-14 07:00:00 -2.7 2 Este 6 Este 0 937.3 -0.2 93
2020-01-14 06:00:00 -2.4 4 Norte 5 Norte 0 937.3 -0.3 91
2020-01-14 05:00:00 -1.9 4 Este 12 Sur 0 937.3 -0.5 87
2020-01-14 04:00:00 -1 5 Sur 9 Sur 0 937.5 -1 90
2020-01-14 03:00:00 -1.2 4 Este 13 Sudoeste 0 937.6 -1.3 87
2020-01-14 02:00:00 0.8 10 Sur 17 Sur 0 937.8 -0.7 85
2020-01-14 01:00:00 -0.1 3 Este 6 Sur 0 938.5 -0.1 87
2020-01-14 00:00:00 0.2 5 Sur 8 Sur 0 938.9 0.2 84
2020-01-13 23:00:00 1.2 7 Sur 12 Sur 0 938.5 -0.2 82
2020-01-13 22:00:00 2.2 5 Sudoeste 16 Sur 0 938.6 -0.2 76
2020-01-13 21:00:00 2.3 7 Sur 14 Sur 0 938.7 0.1 76
2020-01-13 20:00:00 2.9 6 Sur 11 Sur 0 938.7 0 74
2020-01-13 19:00:00 4.5 4 Sur 12 Sur 0 938.8 0.1 68
2020-01-13 18:00:00 7 8 Sudoeste 18 Oeste 0 938.6 -0.6 59
2020-01-13 17:00:00 8.5 9 Sudoeste 19 Sudoeste 0 938.7 -1 55
2020-01-13 16:00:00 8.7 13 Sudoeste 27 Oeste 0 938.7 -2.1 55
2020-01-13 15:00:00 8.4 5 Sudoeste 14 Oeste 0 939.2 -1.9 56
2020-01-13 14:00:00 7.6 8 Oeste 13 Sudoeste 0 939.7 -1.9 58
2020-01-13 13:00:00 5.7 2 Oeste 8 Noroeste 0 940.8 -0.6 64
2020-01-13 12:00:00 3.3 3 Noroeste 5 Noroeste 0 941.1 0.3 72
2020-01-13 11:00:00 1 0 Calma 4 Este 0 941.6 0.6 80
2020-01-13 10:00:00 -1 2 Norte 4 Norte 0 941.4 0.1 83
2020-01-13 09:00:00 -2.3 2 Norte 6 Sudeste 0 940.8 -0.2 88
2020-01-13 08:00:00 -2.7 2 Norte 8 Este 0 941 -0.4 88
2020-01-13 07:00:00 -2.4 3 Este 9 Noroeste 0 941.3 -0.7 86
2020-01-13 06:00:00 -2.3 2 Nordeste 6 Nordeste 0 941 -1.3 87
2020-01-13 05:00:00 -2.3 2 Nordeste 5 Sur 0 941.4 -1.4 88
2020-01-13 04:00:00 -2 0 Calma 7 Norte 0 942 -1.2 86
2020-01-13 03:00:00 -1.5 2 Sudoeste 6 Sudeste 0 942.3 -1.7 86
2020-01-13 02:00:00 -1.2 5 Este 8 Nordeste 0 942.8 -0.9 85
2020-01-13 01:00:00 -0.8 0 Calma 7 Este 0 943.2 -0.8 83
2020-01-13 00:00:00 0 6 Este 9 Este 0 944 0 78
2020-01-12 23:00:00 0.9 0 Calma 6 Sudeste 0 943.7 -0.1 77
2020-01-12 22:00:00 1.1 3 Nordeste 6 Este 0 944 0.5 74
2020-01-12 21:00:00 1.7 0 Calma 4 Sudeste 0 944 1 72
2020-01-12 20:00:00 2.5 4 Sur 8 Sur 0 943.8 0.8 71
2020-01-12 19:00:00 4.4 4 Sur 8 Sur 0 943.5 0.5 65
2020-01-12 18:00:00 8.4 5 Sudoeste 8 Sudoeste 0 943 -0.3 52
2020-01-12 17:00:00 10.4 6 Sudoeste 10 Sudoeste 0 943 -1 46
2020-01-12 16:00:00 10.7 4 Oeste 8 Sudoeste 0 943 -2 45
2020-01-12 15:00:00 9.8 4 Noroeste 12 Oeste 0 943.3 -2.5 49
2020-01-12 14:00:00 8.7 5 Oeste 10 Sudoeste 0 944 -1.7 55
2020-01-12 13:00:00 6.6 2 Noroeste 6 Nordeste 0 945 -0.4 59
2020-01-12 12:00:00 2.2 2 Nordeste 6 Noroeste 0 945.8 0.8 75
2020-01-12 11:00:00 1.2 4 Norte 7 Noroeste 0 945.7 0.8 77
2020-01-12 10:00:00 -2.2 3 Este 5 Este 0 945.4 0.8 88
2020-01-12 09:00:00 -3.6 3 Noroeste 6 Noroeste 0 945 0.4 91
2020-01-12 08:00:00 -3.4 3 Este 5 Norte 0 944.9 0.3 90
2020-01-12 07:00:00 -3.4 3 Nordeste 5 Este 0 944.6 -0.4 90
2020-01-12 06:00:00 -3.1 3 Este 6 Nordeste 0 944.6 -0.3 90
2020-01-12 05:00:00 -2.5 3 Nordeste 9 Nordeste 0 944.6 -0.2 89
2020-01-12 04:00:00 -2.1 0 Calma 5 Norte 0 945 0 88
2020-01-12 03:00:00 -1.7 3 Este 4 Nordeste 0 944.9 -0.3 88
2020-01-12 02:00:00 -1.2 0 Calma 6 Nordeste 0 944.8 -0.5 87
2020-01-12 01:00:00 -0.7 3 Este 5 Norte 0 945 -0.3 85
2020-01-12 00:00:00 0.3 0 Calma 3 Noroeste 0 945.2 0.1 84
2020-01-11 23:00:00 0.9 0 Calma 6 Sur 0 945.3 0.6 81
2020-01-11 22:00:00 1.3 0 Calma 6 Sur 0 945.3 1 78
2020-01-11 21:00:00 2.3 6 Sur 8 Sur 0 945.1 1.2 73
2020-01-11 20:00:00 3.6 6 Sur 9 Sur 0 944.7 0.9 64
2020-01-11 19:00:00 5.6 5 Sur 9 Sur 0 944.3 0.4 55
2020-01-11 18:00:00 9.6 5 Sudoeste 14 Sudoeste 0 943.9 -0.1 42
2020-01-11 17:00:00 11.7 8 Sudoeste 13 Sudoeste 0 943.8 -0.7 35
2020-01-11 16:00:00 12.5 7 Oeste 13 Sudoeste 0 943.9 -1.7 35
2020-01-11 15:00:00 12.3 3 Sudoeste 8 Oeste 0 944 -2.5 38
2020-01-11 14:00:00 10.2 4 Nordeste 10 Noroeste 0 944.5 -2.1 45
2020-01-11 13:00:00 8 5 Norte 10 Norte 0 945.6 -0.5 55
2020-01-11 12:00:00 4.9 5 Norte 9 Norte 0 946.5 0.7 67
2020-01-11 11:00:00 3.1 4 Norte 12 Nordeste 0 946.6 1.1 71
2020-01-11 10:00:00 1.3 4 Nordeste 12 Nordeste 0 946.1 1 76
2020-01-11 09:00:00 0.9 10 Nordeste 16 Este 0 945.8 1 77
2020-01-11 08:00:00 0.9 12 Este 15 Este 0 945.5 0.5 79
2020-01-11 07:00:00 1.2 5 Norte 22 Nordeste 0 945.1 0 78
2020-01-11 06:00:00 1.4 12 Este 17 Este 0 944.8 -0.3 79
2020-01-11 05:00:00 1.5 5 Norte 14 Nordeste 0 945 0.4 79
2020-01-11 04:00:00 1.6 6 Nordeste 16 Este 0 945.1 0.4 78
2020-01-11 03:00:00 2 10 Este 18 Nordeste 0 945.1 0.3 77
2020-01-11 02:00:00 2.9 15 Nordeste 23 Nordeste 0 944.6 -0.1 73
2020-01-11 01:00:00 3.4 12 Nordeste 32 Nordeste 0 944.7 0 71
2020-01-11 00:00:00 3.6 18 Nordeste 26 Nordeste 0 944.8 0.3 71
2020-01-10 23:00:00 4.2 16 Este 28 Este 0 944.7 0.8 70
2020-01-10 22:00:00 4 9 Este 18 Este 0 944.7 1.3 71
2020-01-10 21:00:00 4.3 4 Nordeste 12 Nordeste 0 944.5 1.7 69
2020-01-10 20:00:00 4.9 2 Sudeste 9 Norte 0 943.9 1.5 65
2020-01-10 19:00:00 7.3 4 Nordeste 17 Norte 0 943.4 1.5 57
2020-01-10 18:00:00 9.4 6 Nordeste 25 Nordeste 0 942.8 0.8 50
2020-01-10 17:00:00 10.4 13 Nordeste 33 Norte 0 942.4 0.2 44
2020-01-10 16:00:00 10.7 13 Nordeste 39 Nordeste 0 941.9 -0.7 44
2020-01-10 15:00:00 10.5 18 Nordeste 36 Nordeste 0 942 -0.9 43
2020-01-10 14:00:00 10.2 19 Nordeste 33 Nordeste 0 942.2 -0.5 40
2020-01-10 13:00:00 9.7 12 Nordeste 27 Nordeste 0 942.6 -0.2 44
2020-01-10 12:00:00 7.8 9 Nordeste 17 Nordeste 0 942.9 0.6 57
2020-01-10 11:00:00 6.1 5 Norte 14 Nordeste 0 942.7 1 70
2020-01-10 10:00:00 3.9 5 Nordeste 13 Nordeste 0 942.8 1.9 80
2020-01-10 09:00:00 1.4 4 Nordeste 7 Norte 0 942.3 2.2 85
2020-01-10 08:00:00 2.3 4 Norte 8 Este 0 941.7 1.7 82
2020-01-10 07:00:00 2.6 3 Nordeste 11 Este 0 940.9 1 82
2020-01-10 06:00:00 2.8 5 Nordeste 8 Este 0 940.1 0.3 82
2020-01-10 05:00:00 3 3 Este 9 Este 0 940 0 83
2020-01-10 04:00:00 3.6 6 Nordeste 8 Nordeste 0 939.9 0.2 84
2020-01-10 03:00:00 4 4 Este 7 Sur 0 939.8 -0.3 86
2020-01-10 02:00:00 4.4 4 Sur 9 Sur 0 940 0.5 89
2020-01-10 01:00:00 5.1 4 Este 9 Nordeste 0 939.7 0.3 88
2020-01-10 00:00:00 4.8 5 Este 8 Este 0 940.1 -0.4 85
2020-01-09 23:00:00 6.2 4 Sur 12 Sur 0 939.5 -0.8 81
2020-01-09 22:00:00 7.1 6 Sur 11 Sur 0 939.4 -0.2 77
2020-01-09 21:00:00 7.4 2 Nordeste 8 Sur 0 940.5 1.4 79
2020-01-09 20:00:00 6.8 6 Sur 9 Sur 0 940.3 1.3 80
2020-01-09 19:00:00 7.8 8 Sur 11 Sur 0 939.6 0.4 72
2020-01-09 18:00:00 10.9 8 Sur 13 Sur 0 939.1 -0.9 61
2020-01-09 17:00:00 13.1 9 Sudoeste 17 Oeste 0 939 -1.3 53
2020-01-09 16:00:00 13.6 9 Sudoeste 18 Sudoeste 0 939.2 -1.9 52
2020-01-09 15:00:00 13.5 10 Sudoeste 17 Sudoeste 0 940 -2 53
2020-01-09 14:00:00 12.9 6 Sudoeste 14 Noroeste 0 940.3 -2.5 53
2020-01-09 13:00:00 11 6 Noroeste 12 Oeste 0 941.1 -0.9 58
2020-01-09 12:00:00 8.4 3 Sur 8 Sur 0 942 -0.3 67
2020-01-09 11:00:00 4.8 3 Norte 8 Noroeste 0 942.8 0.8 79
2020-01-09 10:00:00 3.6 3 Nordeste 5 Este 0 942 0 88
2020-01-09 09:00:00 1.5 4 Este 6 Este 0 942.3 0.3 91
2020-01-09 08:00:00 1.9 0 Calma 3 Noroeste 0 942 -0.4 91
2020-01-09 07:00:00 2.1 4 Nordeste 7 Nordeste 0 942 -0.7 90
2020-01-09 06:00:00 2 0 Calma 7 Este 0 942 -1 88
2020-01-09 05:00:00 2.4 0 Calma 6 Norte 0 942.4 -0.8 87
2020-01-09 04:00:00 2.7 2 Sudeste 4 Sudeste 0 942.7 -0.7 85
2020-01-09 03:00:00 3.4 0 Calma 3 Norte 0 943 -0.5 83
2020-01-09 02:00:00 3.7 2 Sur 5 Este 0 943.2 -0.3 81
2020-01-09 01:00:00 4.7 0 Calma 6 Sudeste 0 943.4 0 78
2020-01-09 00:00:00 6.2 0 Calma 7 Sur 0 943.5 0.2 71
2020-01-08 23:00:00 7.7 3 Sudoeste 10 Sur 0 943.5 0.4 65
2020-01-08 22:00:00 8.1 6 Sur 12 Sur 0 943.4 0.5 63
2020-01-08 21:00:00 7.8 3 Sur 10 Sur 0 943.3 0.7 58
2020-01-08 20:00:00 7.9 0 Calma 6 Sur 0 943.1 0.9 55
2020-01-08 19:00:00 9.7 4 Sur 11 Sur 0 942.9 0.7 48
2020-01-08 18:00:00 13.2 5 Sur 10 Sudoeste 0 942.6 0.4 42
2020-01-08 17:00:00 16.3 6 Sudoeste 9 Oeste 0 942.2 -0.5 30
2020-01-08 16:00:00 16.8 4 Oeste 8 Norte 0 942.2 -1.2 28
2020-01-08 15:00:00 15.6 3 Noroeste 7 Noroeste 0 942.2 -2 28
2020-01-08 14:00:00 14.3 3 Oeste 7 Nordeste 0 942.7 -2 33
2020-01-08 13:00:00 11.5 0 Calma 7 Norte 0 943.4 -1 39
2020-01-08 12:00:00 8.2 4 Norte 5 Norte 0 944.2 0.2 51
2020-01-08 11:00:00 6.1 3 Nordeste 5 Nordeste 0 944.7 1.1 52
2020-01-08 10:00:00 3 3 Nordeste 6 Nordeste 0 944.4 0.8 61
2020-01-08 09:00:00 1.2 4 Nordeste 5 Este 0 944 0.3 66
2020-01-08 08:00:00 0.9 5 Este 6 Este 0 943.6 -0.2 67
2020-01-08 07:00:00 0.6 3 Este 5 Nordeste 0 943.6 -0.5 69
2020-01-08 06:00:00 0.3 4 Sur 7 Sur 0 943.7 -0.4 77
2020-01-08 05:00:00 0.4 0 Calma 4 Noroeste 0 943.8 -0.4 79
2020-01-08 04:00:00 0.4 2 Noroeste 5 Noroeste 0 944.1 -0.4 82
2020-01-08 03:00:00 1 3 Noroeste 5 Noroeste 0 944.1 -0.7 81
2020-01-08 02:00:00 1.3 2 Nordeste 6 Nordeste 0 944.2 -0.5 80
2020-01-08 01:00:00 1.9 0 Calma 8 Este 0 944.5 -0.3 81
2020-01-08 00:00:00 2.2 5 Nordeste 8 Nordeste 0 944.8 0.1 78
2020-01-07 23:00:00 2.8 3 Sudeste 5 Este 0 944.7 0 74
2020-01-07 22:00:00 3.3 0 Calma 3 Sudoeste 0 944.8 0.2 73
2020-01-07 21:00:00 4.6 0 Calma 9 Sur 0 944.7 0.5 69
2020-01-07 20:00:00 5.9 3 Sur 8 Sur 0 944.7 0.7 64
2020-01-07 19:00:00 7.7 6 Sur 8 Sur 0 944.6 0.5 57
2020-01-07 18:00:00 12 5 Sudoeste 12 Sudoeste 0 944.2 -0.3 45
2020-01-07 17:00:00 15.3 7 Sudoeste 13 Oeste 0 944 -1 34
2020-01-07 16:00:00 16.2 3 Oeste 6 Noroeste 0 944.1 -1.8 26
2020-01-07 15:00:00 14.6 3 Noroeste 7 Oeste 0 944.5 -1.9 32
2020-01-07 14:00:00 13.3 3 Sudoeste 7 Este 0 945 -1.4 40
2020-01-07 13:00:00 9.7 4 Nordeste 7 Nordeste 0 945.9 -0.4 52
2020-01-07 12:00:00 6 3 Norte 6 Nordeste 0 946.4 0.6 62
2020-01-07 11:00:00 4.2 3 Norte 6 Nordeste 0 946.4 0.9 63
2020-01-07 10:00:00 1.3 3 Norte 7 Nordeste 0 946.3 0.9 71
2020-01-07 09:00:00 -0.8 4 Este 7 Nordeste 0 945.8 0.5 79
2020-01-07 08:00:00 -0.9 0 Calma 7 Nordeste 0 945.5 -0.1 83
2020-01-07 07:00:00 -0.3 3 Nordeste 6 Nordeste 0 945.4 -0.1 79
2020-01-07 06:00:00 -0.3 3 Nordeste 7 Este 0 945.3 -0.3 79
2020-01-07 05:00:00 -0.1 3 Nordeste 8 Nordeste 0 945.6 0.4 81
2020-01-07 04:00:00 0.3 4 Nordeste 6 Nordeste 0 945.5 0.2 83
2020-01-07 03:00:00 0.8 2 Nordeste 6 Norte 0 945.6 0.5 85
2020-01-07 02:00:00 1.2 4 Nordeste 8 Nordeste 0 945.2 0.3 86
2020-01-07 01:00:00 1.9 2 Nordeste 7 Nordeste 0 945.3 0.6 83
2020-01-07 00:00:00 2.5 3 Nordeste 6 Norte 0 945.1 0.7 83
2020-01-06 23:00:00 3.2 0 Calma 5 Sur 0 944.9 1 82
2020-01-06 22:00:00 4 3 Este 6 Sudeste 0 944.7 1.4 78
2020-01-06 21:00:00 4.8 3 Sudeste 4 Nordeste 0 944.4 1.6 74
2020-01-06 20:00:00 5.9 2 Sudeste 9 Sur 0 943.9 1.4 72
2020-01-06 19:00:00 7.8 4 Sur 9 Sur 0 943.3 0.9 66
2020-01-06 18:00:00 11.5 5 Sur 9 Sudoeste 0 942.8 0.5 54
2020-01-06 17:00:00 14.3 6 Sudoeste 12 Noroeste 0 942.5 -0.4 42
2020-01-06 16:00:00 15.3 5 Oeste 10 Oeste 0 942.4 -1.1 40
2020-01-06 15:00:00 14.9 3 Sudoeste 7 Sudoeste 0 942.3 -2.1 37
2020-01-06 14:00:00 12.8 3 Oeste 8 Noroeste 0 942.9 -1.2 48
2020-01-06 13:00:00 9.9 3 Noroeste 8 Noroeste 0 943.5 -0.7 59
2020-01-06 12:00:00 5.5 5 Noroeste 8 Noroeste 0 944.4 0.5 73
2020-01-06 11:00:00 4.4 3 Norte 6 Norte 0 944.1 1.1 77
2020-01-06 10:00:00 1.3 2 Norte 5 Este 0 944.2 1.5 87